createdAt,value
2023-03-06T00:29:11.217Z,22.52
2023-03-06T00:31:38.006Z,20.65
2023-03-06T00:34:04.668Z,23.25
2023-03-06T00:36:31.321Z,23.65
2023-03-06T00:38:57.961Z,27.17
2023-03-06T00:41:25.014Z,23.90
2023-03-06T00:43:51.614Z,22.30
2023-03-06T00:46:18.257Z,25.02
2023-03-06T00:48:44.928Z,24.88
2023-03-06T00:51:13.865Z,24.83
2023-03-06T00:53:40.711Z,20.13
2023-03-06T00:56:09.212Z,21.83
2023-03-06T00:58:37.399Z,19.92
2023-03-06T01:01:04.376Z,25.45
2023-03-06T01:03:31.310Z,18.40
2023-03-06T01:05:57.977Z,21.10
2023-03-06T01:08:24.550Z,24.77
2023-03-06T01:10:51.173Z,19.52
2023-03-06T01:13:18.117Z,18.92
2023-03-06T01:15:44.876Z,20.50
2023-03-06T01:18:11.513Z,21.67
2023-03-06T01:20:38.378Z,21.00
2023-03-06T01:23:05.058Z,22.80
2023-03-06T01:25:31.626Z,21.05
2023-03-06T01:27:58.178Z,20.00
2023-03-06T01:30:24.796Z,20.38
2023-03-06T01:32:51.552Z,28.48
2023-03-06T01:35:18.947Z,21.40
2023-03-06T01:37:45.729Z,24.70
2023-03-06T01:40:13.066Z,25.48
2023-03-06T01:42:39.920Z,18.83
2023-03-06T01:45:29.067Z,19.30
2023-03-06T01:47:55.748Z,20.70
2023-03-06T01:50:22.348Z,21.75
2023-03-06T01:52:52.468Z,19.45
2023-03-06T01:55:26.454Z,19.63
2023-03-06T01:57:57.844Z,22.60
2023-03-06T02:00:27.775Z,21.27
2023-03-06T02:03:00.967Z,23.83
2023-03-06T02:05:27.581Z,18.00
2023-03-06T02:07:54.706Z,23.15
2023-03-06T02:10:22.111Z,24.25
2023-03-06T02:12:50.772Z,21.90
2023-03-06T02:15:20.496Z,21.95
2023-03-06T02:17:49.865Z,20.27
2023-03-06T02:20:27.482Z,19.40
2023-03-06T02:23:32.183Z,21.20
2023-03-06T02:26:01.532Z,19.80
2023-03-06T02:28:28.478Z,26.05
2023-03-06T02:30:56.499Z,20.95
2023-03-06T02:33:26.622Z,19.08
2023-03-06T02:35:56.224Z,25.77
2023-03-06T02:38:27.809Z,25.80
2023-03-06T02:40:55.182Z,21.63
2023-03-06T02:43:26.117Z,20.70
2023-03-06T02:45:52.856Z,24.90
2023-03-06T02:48:20.772Z,22.98
2023-03-06T02:50:48.146Z,27.52
2023-03-06T02:53:17.261Z,23.38
2023-03-06T02:55:44.280Z,23.33
2023-03-06T02:58:10.898Z,21.20
2023-03-06T03:00:37.507Z,22.25
2023-03-06T03:03:05.072Z,22.98
2023-03-06T03:05:32.592Z,22.30
2023-03-06T03:07:59.280Z,21.42
2023-03-06T03:10:26.086Z,21.98
2023-03-06T03:12:52.784Z,19.45
2023-03-06T03:15:19.581Z,20.92
2023-03-06T03:17:46.193Z,21.90
2023-03-06T03:20:15.498Z,22.35
2023-03-06T03:22:42.121Z,22.63
2023-03-06T03:25:09.294Z,21.33
2023-03-06T03:27:35.932Z,24.27
2023-03-06T03:30:02.578Z,25.23
2023-03-06T03:32:29.615Z,24.65
2023-03-06T03:34:56.686Z,24.10
2023-03-06T03:37:23.348Z,25.48
2023-03-06T03:39:49.999Z,24.77
2023-03-06T03:42:16.620Z,23.17
2023-03-06T03:44:43.225Z,28.17
2023-03-06T03:47:09.951Z,28.50
2023-03-06T03:49:36.672Z,23.15
2023-03-06T03:52:03.464Z,27.85
2023-03-06T03:54:30.174Z,26.00
2023-03-06T03:56:57.145Z,28.25
2023-03-06T03:59:24.013Z,28.48
2023-03-06T04:01:50.838Z,27.65
2023-03-06T04:04:17.498Z,32.22
2023-03-06T04:06:44.260Z,29.25
2023-03-06T04:09:10.802Z,27.08
2023-03-06T04:11:37.550Z,21.25
2023-03-06T04:14:04.384Z,23.73
2023-03-06T04:16:31.155Z,26.67
2023-03-06T04:18:57.918Z,24.42
2023-03-06T04:21:24.486Z,23.75
2023-03-06T04:23:51.162Z,24.42
2023-03-06T04:26:17.838Z,19.98
2023-03-06T04:28:44.438Z,21.50
2023-03-06T04:31:12.844Z,22.30
2023-03-06T04:33:39.853Z,26.55
2023-03-06T04:36:06.766Z,27.02
2023-03-06T04:38:33.409Z,26.98
2023-03-06T04:41:00.124Z,25.15
2023-03-06T04:43:27.067Z,29.23
2023-03-06T04:45:53.787Z,22.13
2023-03-06T04:48:20.635Z,24.77
2023-03-06T04:50:47.254Z,25.23
2023-03-06T04:53:14.745Z,22.23
2023-03-06T04:55:41.375Z,23.38
2023-03-06T04:58:07.932Z,22.35
2023-03-06T05:00:34.797Z,23.15
2023-03-06T05:03:01.698Z,27.40
2023-03-06T05:05:29.191Z,32.72
2023-03-06T05:07:56.437Z,22.20
2023-03-06T05:10:23.962Z,27.25
2023-03-06T05:12:50.824Z,29.92
2023-03-06T05:15:17.962Z,22.75
2023-03-06T05:17:44.921Z,29.83
2023-03-06T05:20:13.059Z,27.42
2023-03-06T05:22:40.028Z,27.85
2023-03-06T05:25:07.478Z,30.02
2023-03-06T05:27:34.589Z,31.23
2023-03-06T05:30:01.430Z,29.00
2023-03-06T05:32:28.284Z,33.13
2023-03-06T05:34:55.014Z,28.73
2023-03-06T05:37:23.122Z,27.13
2023-03-06T05:39:50.976Z,24.38
2023-03-06T05:42:18.440Z,25.70
2023-03-06T05:44:45.378Z,25.33
2023-03-06T05:47:12.221Z,29.65
2023-03-06T05:49:39.033Z,27.33
2023-03-06T05:52:07.806Z,26.67
2023-03-06T05:54:36.283Z,29.00
2023-03-06T05:57:04.955Z,23.85
2023-03-06T05:59:33.150Z,28.25
2023-03-06T06:02:01.189Z,35.97
2023-03-06T06:04:28.261Z,25.55
2023-03-06T06:07:00.468Z,28.15
2023-03-06T06:09:28.236Z,21.17
2023-03-06T06:11:57.913Z,25.70
2023-03-06T06:14:24.980Z,21.17
2023-03-06T06:16:52.123Z,22.73
2023-03-06T06:19:20.150Z,27.27
2023-03-06T06:21:48.622Z,22.42
2023-03-06T06:24:16.923Z,25.20
2023-03-06T06:26:44.510Z,28.63
2023-03-06T06:29:12.588Z,25.33
2023-03-06T06:31:39.976Z,27.55
2023-03-06T06:34:08.203Z,22.92
2023-03-06T06:36:34.831Z,23.95
2023-03-06T06:39:01.551Z,27.90
2023-03-06T06:41:50.640Z,19.23
2023-03-06T06:44:16.199Z,17.73
2023-03-06T06:49:32.865Z,23.27
2023-03-06T06:52:00.134Z,21.17
2023-03-06T06:54:27.303Z,20.33
2023-03-06T06:56:54.311Z,19.40
2023-03-06T06:59:23.614Z,19.73
2023-03-06T07:01:51.421Z,23.77
2023-03-06T07:04:19.242Z,23.95
2023-03-06T07:06:46.299Z,18.85
2023-03-06T07:09:13.762Z,21.02
2023-03-06T07:11:41.037Z,22.17
2023-03-06T07:14:07.692Z,21.63
2023-03-06T07:16:34.417Z,15.10
2023-03-06T07:19:01.140Z,16.45
2023-03-06T07:21:27.897Z,20.63
2023-03-06T07:23:57.401Z,14.68
2023-03-06T07:26:25.287Z,13.18
2023-03-06T07:28:53.742Z,17.42
2023-03-06T07:31:26.626Z,17.40
2023-03-06T07:33:54.495Z,18.40
2023-03-06T07:36:23.014Z,15.00
2023-03-06T07:38:49.690Z,18.50
2023-03-06T07:41:17.257Z,14.48
2023-03-06T07:43:45.323Z,14.80
2023-03-06T07:46:13.451Z,17.38
2023-03-06T07:48:40.978Z,18.38
2023-03-06T07:51:14.849Z,14.82
2023-03-06T07:53:41.507Z,17.05
2023-03-06T07:56:09.312Z,14.98
2023-03-06T07:58:36.768Z,14.10
2023-03-06T08:01:08.264Z,16.98
2023-03-06T08:03:35.071Z,15.18
2023-03-06T08:06:13.411Z,16.98
2023-03-06T08:08:41.737Z,16.23
2023-03-06T08:11:10.391Z,14.30
2023-03-06T08:13:38.285Z,15.30
2023-03-06T08:16:06.001Z,17.33
2023-03-06T08:18:33.154Z,19.10
2023-03-06T08:21:07.114Z,12.70
2023-03-06T08:23:34.705Z,19.17
2023-03-06T08:26:04.490Z,17.30
2023-03-06T08:28:31.416Z,17.67
2023-03-06T08:30:58.570Z,20.10
2023-03-06T08:33:25.528Z,17.75
2023-03-06T08:35:52.719Z,17.30
2023-03-06T08:38:19.445Z,16.20
2023-03-06T08:40:46.045Z,22.95
2023-03-06T08:43:14.183Z,18.35
2023-03-06T08:45:41.001Z,20.55
2023-03-06T08:48:07.723Z,16.73
2023-03-06T08:50:34.481Z,21.75
2023-03-06T08:53:01.335Z,17.58
2023-03-06T08:55:28.293Z,17.25
2023-03-06T08:57:54.960Z,23.48
2023-03-06T09:00:21.692Z,20.42
2023-03-06T09:02:48.366Z,26.50
2023-03-06T09:05:14.992Z,19.20
2023-03-06T09:07:41.548Z,18.55
2023-03-06T09:10:12.734Z,20.27
2023-03-06T09:12:49.908Z,26.52
2023-03-06T09:15:19.175Z,15.82
2023-03-06T09:17:45.960Z,19.02
2023-03-06T09:20:12.950Z,22.27
2023-03-06T09:22:39.681Z,23.05
2023-03-06T09:25:06.877Z,18.25
2023-03-06T09:27:33.565Z,21.75
2023-03-06T09:30:00.260Z,21.98
2023-03-06T09:32:26.941Z,23.80
2023-03-06T09:34:53.865Z,38.55
2023-03-06T09:37:20.581Z,16.00
2023-03-06T09:39:47.280Z,18.70
2023-03-06T09:42:20.457Z,19.50
2023-03-06T09:44:59.892Z,22.73
2023-03-06T09:47:47.833Z,21.77
2023-03-06T09:50:17.160Z,20.33
2023-03-06T09:53:15.368Z,24.20
2023-03-06T09:55:46.710Z,24.85
2023-03-06T09:58:25.144Z,23.08
2023-03-06T10:01:06.562Z,28.15
2023-03-06T10:04:05.215Z,17.08
2023-03-06T10:06:49.139Z,20.60
2023-03-06T10:09:15.731Z,23.08
2023-03-06T10:11:48.822Z,22.25
2023-03-06T10:14:37.708Z,15.95
2023-03-06T10:17:05.845Z,17.60
2023-03-06T10:19:37.726Z,19.83
2023-03-06T10:22:37.050Z,21.27
2023-03-06T10:25:20.363Z,23.10
2023-03-06T10:27:50.296Z,18.50
2023-03-06T10:30:38.631Z,25.00
2023-03-06T10:33:21.387Z,21.17
2023-03-06T10:35:53.698Z,23.05
2023-03-06T10:41:30.588Z,25.73
2023-03-06T10:43:59.934Z,25.58
2023-03-06T10:46:33.339Z,23.00
2023-03-06T10:49:02.326Z,27.15
2023-03-06T10:51:30.323Z,17.75
2023-03-06T10:53:59.895Z,22.10
2023-03-06T10:56:38.291Z,22.85
2023-03-06T10:59:22.991Z,21.50
2023-03-06T11:01:54.944Z,21.92
2023-03-06T11:04:32.494Z,19.08
2023-03-06T11:07:15.465Z,17.77
2023-03-06T11:09:52.329Z,19.60
2023-03-06T11:12:30.319Z,17.20
2023-03-06T11:15:32.461Z,17.73
2023-03-06T11:18:34.917Z,10.93
2023-03-06T11:21:04.209Z,10.60
2023-03-06T11:23:47.243Z,10.73
2023-03-06T11:26:13.855Z,14.07
2023-03-06T11:28:43.927Z,7.78
2023-03-06T11:31:18.649Z,10.48
2023-03-06T11:34:05.104Z,12.57
2023-03-06T11:36:54.411Z,14.68
2023-03-06T11:39:26.450Z,14.75
2023-03-06T11:42:02.131Z,9.73
2023-03-06T11:44:43.719Z,20.15
2023-03-06T11:47:18.349Z,18.55
2023-03-06T11:49:49.432Z,9.85
2023-03-06T11:52:23.156Z,14.57
2023-03-06T11:54:54.723Z,12.27
2023-03-06T11:57:42.107Z,10.15
2023-03-06T12:00:17.706Z,9.35
2023-03-06T12:02:56.030Z,13.00
2023-03-06T12:05:31.794Z,12.32
2023-03-06T12:08:20.675Z,10.07
2023-03-06T12:11:26.455Z,10.75
2023-03-06T12:14:01.017Z,7.80
2023-03-06T12:16:58.718Z,11.73
2023-03-06T12:19:31.351Z,12.70
2023-03-06T12:22:09.641Z,12.15
2023-03-06T12:24:55.330Z,19.17
2023-03-06T12:27:33.723Z,9.85
2023-03-06T12:30:20.570Z,7.60
2023-03-06T12:33:14.830Z,11.10
2023-03-06T12:35:44.390Z,10.63
2023-03-06T12:38:46.214Z,10.88
2023-03-06T12:41:12.827Z,9.80
2023-03-06T12:43:40.139Z,8.77
2023-03-06T12:46:15.336Z,8.40
2023-03-06T12:48:48.579Z,11.23
2023-03-06T12:51:20.475Z,10.45
2023-03-06T12:53:49.260Z,9.93
2023-03-06T12:56:18.268Z,9.70
2023-03-06T12:58:54.621Z,11.07
2023-03-06T13:01:36.315Z,7.40
2023-03-06T13:04:19.602Z,8.52
2023-03-06T13:07:01.764Z,7.30
2023-03-06T13:10:02.560Z,13.90
2023-03-06T13:12:41.272Z,8.18
2023-03-06T13:15:29.763Z,8.15
2023-03-06T13:17:56.947Z,14.75
2023-03-06T13:20:44.522Z,9.30
2023-03-06T13:23:29.671Z,9.23
2023-03-06T13:26:25.574Z,8.25
2023-03-06T13:28:54.111Z,8.05
2023-03-06T13:31:34.443Z,8.25
2023-03-06T13:34:06.276Z,7.50
2023-03-06T13:36:39.606Z,7.18
2023-03-06T13:39:12.873Z,8.55
2023-03-06T13:41:52.927Z,6.20
2023-03-06T13:44:25.661Z,15.18
2023-03-06T13:47:06.103Z,9.88
2023-03-06T13:49:34.513Z,5.75
2023-03-06T13:52:03.711Z,11.13
2023-03-06T13:54:59.985Z,7.15
2023-03-06T13:57:38.247Z,5.05
2023-03-06T14:00:32.693Z,6.65
2023-03-06T14:03:14.300Z,4.72
2023-03-06T14:05:46.563Z,11.60
2023-03-06T14:11:02.454Z,4.05
2023-03-06T14:13:45.445Z,6.00
2023-03-06T14:16:22.664Z,4.90
2023-03-06T14:18:55.419Z,4.82
2023-03-06T14:21:36.998Z,6.38
2023-03-06T14:24:05.580Z,4.97
2023-03-06T14:26:39.348Z,11.77
2023-03-06T14:29:20.796Z,9.57
2023-03-06T14:31:50.813Z,3.55
2023-03-06T14:34:35.589Z,2.22
2023-03-06T14:37:05.542Z,4.18
2023-03-06T14:39:41.534Z,3.03
2023-03-06T14:42:21.481Z,4.32
2023-03-06T14:44:49.727Z,4.97
2023-03-06T14:47:29.134Z,6.28
2023-03-06T14:50:17.446Z,4.03
2023-03-06T14:52:44.419Z,6.85
2023-03-06T14:55:16.987Z,5.35
2023-03-06T14:57:44.018Z,6.90
2023-03-06T15:00:17.415Z,4.43
2023-03-06T15:02:45.207Z,15.30
2023-03-06T15:05:31.002Z,4.43
2023-03-06T15:08:02.483Z,11.27
2023-03-06T15:10:35.636Z,11.57
2023-03-06T15:13:22.379Z,9.50
2023-03-06T15:15:56.166Z,12.07
2023-03-06T15:18:30.629Z,10.65
2023-03-06T15:21:16.679Z,8.70
2023-03-06T15:23:46.900Z,5.03
2023-03-06T15:26:33.469Z,4.53
2023-03-06T15:29:10.229Z,3.58
2023-03-06T15:31:42.230Z,4.82
2023-03-06T15:34:11.469Z,4.47
2023-03-06T15:36:46.067Z,6.35
2023-03-06T15:39:36.985Z,5.15
2023-03-06T15:42:22.432Z,5.75
2023-03-06T15:44:53.793Z,5.90
2023-03-06T15:47:21.629Z,6.57
2023-03-06T15:49:52.051Z,8.60
2023-03-06T15:52:22.108Z,7.70
2023-03-06T15:54:51.847Z,5.68
2023-03-06T15:57:29.101Z,13.23
2023-03-06T15:59:57.813Z,10.35
2023-03-06T16:02:24.741Z,25.08
2023-03-06T16:04:53.508Z,18.60
2023-03-06T16:07:20.798Z,104.05
2023-03-06T16:09:47.574Z,102.30
2023-03-06T16:12:20.522Z,44.70
2023-03-06T16:14:48.508Z,31.75
2023-03-06T16:17:16.091Z,21.27
2023-03-06T16:19:43.473Z,19.85
2023-03-06T16:22:10.627Z,20.23
2023-03-06T16:24:37.752Z,17.80
2023-03-06T16:27:04.835Z,11.00
2023-03-06T16:29:31.870Z,9.38
2023-03-06T16:32:00.717Z,9.32
2023-03-06T16:34:27.714Z,7.70
2023-03-06T16:36:54.502Z,11.80
2023-03-06T16:39:22.894Z,13.60
2023-03-06T16:41:50.632Z,11.43
2023-03-06T16:44:17.331Z,12.43
2023-03-06T16:46:46.173Z,11.25
2023-03-06T16:49:24.066Z,12.13
2023-03-06T16:51:51.621Z,14.98
2023-03-06T16:54:18.821Z,14.95
2023-03-06T16:56:45.936Z,13.15
2023-03-06T16:59:12.724Z,11.93
2023-03-06T17:01:42.698Z,13.40
2023-03-06T17:04:09.756Z,14.00
2023-03-06T17:06:36.743Z,9.57
2023-03-06T17:09:04.621Z,13.07
2023-03-06T17:11:31.362Z,12.27
2023-03-06T17:13:58.008Z,15.90
2023-03-06T17:16:24.651Z,11.07
2023-03-06T17:18:52.491Z,9.43
2023-03-06T17:21:19.224Z,12.98
2023-03-06T17:23:46.207Z,9.32
2023-03-06T17:26:18.877Z,13.25
2023-03-06T17:28:46.718Z,9.13
2023-03-06T17:31:17.686Z,12.93
2023-03-06T17:33:44.936Z,10.30
2023-03-06T17:36:14.368Z,9.35
2023-03-06T17:38:41.874Z,12.63
2023-03-06T17:41:10.016Z,11.60
2023-03-06T17:43:38.078Z,15.18
2023-03-06T17:46:06.904Z,26.85
2023-03-06T17:48:34.138Z,6.70
2023-03-06T17:51:01.124Z,12.70
2023-03-06T17:53:28.330Z,6.65
2023-03-06T17:55:55.588Z,9.48
2023-03-06T17:58:22.307Z,7.03
2023-03-06T18:00:49.221Z,5.47
2023-03-06T18:03:15.915Z,5.15
2023-03-06T18:05:42.468Z,8.75
2023-03-06T18:08:10.312Z,6.30
2023-03-06T18:10:41.564Z,5.20
2023-03-06T18:13:09.016Z,7.03
2023-03-06T18:15:39.820Z,8.68
2023-03-06T18:18:07.291Z,6.03
2023-03-06T18:20:34.259Z,7.28
2023-03-06T18:23:03.608Z,6.20
2023-03-06T18:25:32.415Z,10.07
2023-03-06T18:27:59.462Z,6.97
2023-03-06T18:30:26.928Z,8.68
2023-03-06T18:32:54.008Z,7.47
2023-03-06T18:35:21.175Z,8.38
2023-03-06T18:37:47.871Z,6.95
2023-03-06T18:40:15.073Z,7.65
2023-03-06T18:42:42.153Z,16.45
2023-03-06T18:45:09.858Z,8.27
2023-03-06T18:47:36.766Z,10.48
2023-03-06T18:50:03.725Z,8.48
2023-03-06T18:52:34.602Z,12.20
2023-03-06T18:55:10.243Z,11.60
2023-03-06T18:57:37.566Z,9.13
2023-03-06T19:00:07.850Z,9.95
2023-03-06T19:02:35.167Z,8.70
2023-03-06T19:05:05.715Z,13.13
2023-03-06T19:07:46.577Z,12.40
2023-03-06T19:10:17.518Z,10.35
2023-03-06T19:12:47.944Z,21.52
2023-03-06T19:15:22.223Z,9.73
2023-03-06T19:17:59.474Z,10.32
2023-03-06T19:20:31.376Z,15.13
2023-03-06T19:23:09.379Z,14.77
2023-03-06T19:25:40.212Z,11.77
2023-03-06T19:28:10.806Z,9.43
2023-03-06T19:30:41.232Z,15.48
2023-03-06T19:33:13.230Z,11.30
2023-03-06T19:35:42.226Z,14.45
2023-03-06T19:38:21.021Z,9.77
2023-03-06T19:40:51.305Z,10.45
2023-03-06T19:43:18.048Z,11.20
2023-03-06T19:45:44.801Z,15.15
2023-03-06T19:48:13.489Z,10.05
2023-03-06T19:50:40.542Z,15.38
2023-03-06T19:53:07.897Z,13.23
2023-03-06T19:55:34.973Z,7.95
2023-03-06T19:58:01.943Z,9.80
2023-03-06T20:00:29.048Z,11.38
2023-03-06T20:02:57.016Z,11.18
2023-03-06T20:05:23.596Z,12.60
2023-03-06T20:07:50.283Z,10.50
2023-03-06T20:10:17.505Z,12.77
2023-03-06T20:12:44.458Z,10.43
2023-03-06T20:15:12.033Z,33.10
2023-03-06T20:17:40.702Z,8.35
2023-03-06T20:20:09.824Z,13.05
2023-03-06T20:22:36.456Z,10.45
2023-03-06T20:25:03.716Z,8.85
2023-03-06T20:27:30.410Z,9.25
2023-03-06T20:29:57.221Z,11.23
2023-03-06T20:32:23.896Z,16.10
2023-03-06T20:34:50.625Z,19.67
2023-03-06T20:37:17.374Z,10.95
2023-03-06T20:39:44.108Z,8.30
2023-03-06T20:42:10.691Z,16.42
2023-03-06T20:44:37.388Z,14.68
2023-03-06T20:47:04.244Z,16.63
2023-03-06T20:49:30.856Z,18.70
2023-03-06T20:51:57.536Z,12.48
2023-03-06T20:54:24.172Z,12.38
2023-03-06T20:56:50.802Z,8.98
2023-03-06T20:59:17.551Z,9.25
2023-03-06T21:01:45.726Z,8.20
2023-03-06T21:04:14.261Z,10.38
2023-03-06T21:06:45.338Z,10.50
2023-03-06T21:09:13.620Z,13.93
2023-03-06T21:11:40.493Z,10.13
2023-03-06T21:14:07.189Z,11.00
2023-03-06T21:16:34.148Z,12.27
2023-03-06T21:19:01.272Z,9.45
2023-03-06T21:21:30.801Z,11.85
2023-03-06T21:23:57.799Z,11.73
2023-03-06T21:26:26.951Z,14.38
2023-03-06T21:28:53.918Z,16.00
2023-03-06T21:31:22.110Z,10.07
2023-03-06T21:33:49.815Z,14.77
2023-03-06T21:36:18.739Z,18.92
2023-03-06T21:38:45.331Z,45.95
2023-03-06T21:41:30.661Z,53.70
2023-03-06T21:43:59.373Z,64.00
2023-03-06T21:46:27.496Z,25.55
2023-03-06T21:48:54.844Z,47.22
2023-03-06T21:51:23.700Z,19.10
2023-03-06T21:53:51.289Z,12.77
2023-03-06T21:56:20.767Z,11.32
2023-03-06T21:58:47.506Z,15.20
2023-03-06T22:01:20.085Z,16.40
2023-03-06T22:03:47.386Z,10.93
2023-03-06T22:06:22.737Z,11.80
2023-03-06T22:08:49.333Z,11.02
2023-03-06T22:11:18.644Z,13.43
2023-03-06T22:13:46.274Z,12.35
2023-03-06T22:16:13.718Z,12.68
2023-03-06T22:18:44.365Z,11.02
2023-03-06T22:21:12.934Z,11.90
2023-03-06T22:23:40.606Z,14.50
2023-03-06T22:26:12.856Z,13.43
2023-03-06T22:31:17.660Z,10.50
2023-03-06T22:33:44.595Z,14.07
2023-03-06T22:36:14.472Z,13.10
2023-03-06T22:38:43.457Z,15.05
2023-03-06T22:41:11.459Z,15.20
2023-03-06T22:43:38.086Z,14.75
2023-03-06T22:46:10.004Z,15.75
2023-03-06T22:48:36.670Z,15.23
2023-03-06T22:51:09.394Z,14.30
2023-03-06T22:53:36.803Z,10.90
2023-03-06T22:56:05.549Z,14.73
2023-03-06T22:58:37.349Z,12.05
2023-03-06T23:01:12.225Z,12.40
2023-03-06T23:03:40.660Z,11.90
2023-03-06T23:06:30.493Z,15.85
2023-03-06T23:09:06.048Z,13.07
2023-03-06T23:11:33.501Z,17.13
2023-03-06T23:14:00.734Z,18.00
2023-03-06T23:16:27.352Z,13.95
2023-03-06T23:18:54.173Z,13.73
2023-03-06T23:21:23.028Z,13.27
2023-03-06T23:23:51.544Z,12.50
2023-03-06T23:26:20.492Z,11.60
2023-03-06T23:28:47.271Z,15.10
2023-03-06T23:31:17.849Z,13.02
2023-03-06T23:33:44.508Z,12.95
2023-03-06T23:36:13.638Z,17.67
2023-03-06T23:38:40.829Z,20.15
2023-03-06T23:41:18.616Z,14.45
2023-03-06T23:43:47.040Z,13.20
2023-03-06T23:46:14.133Z,18.63
2023-03-06T23:48:42.031Z,15.35
2023-03-06T23:51:13.002Z,16.30
2023-03-06T23:53:39.673Z,14.07
2023-03-06T23:56:07.316Z,15.93
2023-03-06T23:58:34.311Z,16.60
